createdAt,value
2019-05-26T01:39:06.508Z,7.47
2019-05-26T01:41:33.727Z,16.10
2019-05-26T01:44:00.625Z,13.90
2019-05-26T01:46:27.444Z,19.87
2019-05-26T01:48:54.237Z,10.40
2019-05-26T01:51:21.191Z,3.07
2019-05-26T01:53:48.343Z,2.53
2019-05-26T01:56:15.413Z,10.00
2019-05-26T01:58:42.212Z,28.00
2019-05-26T02:01:09.019Z,1.60
2019-05-26T02:03:35.822Z,1.73
2019-05-26T02:06:02.877Z,1.63
2019-05-26T02:08:38.696Z,6.43
2019-05-26T02:10:58.479Z,1.90
2019-05-26T02:13:25.524Z,1.77
2019-05-26T02:15:52.559Z,2.43
2019-05-26T02:18:19.714Z,3.43
2019-05-26T02:20:59.714Z,6.23
2019-05-26T02:23:26.609Z,5.00
2019-05-26T02:25:53.398Z,7.90
2019-05-26T02:28:20.512Z,35.17
2019-05-26T02:30:47.864Z,129.23
2019-05-26T02:33:14.898Z,191.00
2019-05-26T02:35:41.692Z,77.80
2019-05-26T02:38:08.755Z,2.63
2019-05-26T02:40:35.694Z,4.20
2019-05-26T02:43:02.880Z,12.43
2019-05-26T02:45:29.766Z,17.43
2019-05-26T02:47:57.106Z,17.70
2019-05-26T02:50:24.342Z,18.53
2019-05-26T02:52:51.198Z,17.27
2019-05-26T02:55:18.757Z,19.63
2019-05-26T02:57:45.625Z,23.20
2019-05-26T03:00:13.475Z,19.57
2019-05-26T03:02:40.683Z,18.10
2019-05-26T03:05:08.406Z,17.30
2019-05-26T03:07:38.719Z,18.77
2019-05-26T03:10:06.197Z,32.30
2019-05-26T03:12:33.825Z,30.60
2019-05-26T03:15:02.387Z,85.13
2019-05-26T03:17:33.142Z,11.10
2019-05-26T03:20:02.130Z,12.60
2019-05-26T03:22:31.211Z,16.87
2019-05-26T03:24:59.877Z,19.43
2019-05-26T03:27:26.953Z,18.17
2019-05-26T03:29:53.829Z,19.43
2019-05-26T03:32:20.833Z,20.57
2019-05-26T03:34:48.702Z,25.70
2019-05-26T03:37:15.619Z,25.37
2019-05-26T03:39:45.955Z,29.80
2019-05-26T03:42:11.411Z,31.43
2019-05-26T03:44:38.625Z,33.03
2019-05-26T03:47:05.662Z,41.77
2019-05-26T03:49:32.646Z,32.20
2019-05-26T03:51:59.548Z,36.47
2019-05-26T03:54:26.683Z,30.13
2019-05-26T03:56:53.685Z,32.10
2019-05-26T03:59:20.643Z,30.03
2019-05-26T04:01:47.632Z,29.87
2019-05-26T04:04:14.987Z,30.77
2019-05-26T04:06:42.743Z,23.77
2019-05-26T04:09:09.795Z,29.70
2019-05-26T04:11:36.659Z,27.00
2019-05-26T04:14:03.936Z,24.20
2019-05-26T04:16:31.020Z,23.00
